KLMT

Crater Lake-Klamath Regional Airport

Klamath Falls, Oregon, USA
METAR KLMT 161453Z 00000KT 6SM BR FU CLR M07/M09 A3018 RMK AO2 SLP244 T10721094 51001
Observed Flight Rules
Nov-16 @ 14:53 UTC (an hour ago) Visual Flight Rules
Visibility Clouds Conditions
6 miles
  • Clear skies
  • Mist
  • Smoke
Temperatures Readings
Current -7°C / 19°F
Dewpoint -9°C / 16°F
Humidity 86%
Altimeter 30.18" Hg
Pressure 1024.4 hPa
Elevation 1246
METAR KLMT 161453Z 00000KT 6SM BR FU CLR M07/M09 A3018 RMK AO2 SLP244 T10721094 51001
Observed Flight Rules
Nov-16 @ 14:53 UTC
(an hour ago)
VFR
Clouds
  • Clear skies
Conditions
  • Mist
  • Smoke
Temperature Dewpoint
-7°C / 19°F -9°C / 16°F
Humidity Altimeter Pressure
86% 30.18" Hg 1024.4 hPa